sensor_id;sensor_type;location;lat;lon;timestamp;temperature;humidity
76785;SHT30;66893;44.316;0.092;2023-06-22T00:00:29;25.73;70.41
76785;SHT30;66893;44.316;0.092;2023-06-22T00:02:55;25.67;70.41
76785;SHT30;66893;44.316;0.092;2023-06-22T00:05:20;25.69;70.38
76785;SHT30;66893;44.316;0.092;2023-06-22T00:07:45;25.70;70.36
76785;SHT30;66893;44.316;0.092;2023-06-22T00:10:11;25.69;70.34
76785;SHT30;66893;44.316;0.092;2023-06-22T00:12:37;25.69;70.35
76785;SHT30;66893;44.316;0.092;2023-06-22T00:15:03;25.66;70.32
76785;SHT30;66893;44.316;0.092;2023-06-22T00:17:28;25.66;70.35
76785;SHT30;66893;44.316;0.092;2023-06-22T00:19:54;25.67;70.32
76785;SHT30;66893;44.316;0.092;2023-06-22T00:22:21;25.67;70.28
76785;SHT30;66893;44.316;0.092;2023-06-22T00:24:55;25.63;70.29
76785;SHT30;66893;44.316;0.092;2023-06-22T00:27:20;25.63;70.28
76785;SHT30;66893;44.316;0.092;2023-06-22T00:29:45;25.65;70.31
76785;SHT30;66893;44.316;0.092;2023-06-22T00:32:11;25.65;70.30
76785;SHT30;66893;44.316;0.092;2023-06-22T00:34:36;25.62;70.32
76785;SHT30;66893;44.316;0.092;2023-06-22T00:37:02;25.61;70.32
76785;SHT30;66893;44.316;0.092;2023-06-22T00:39:27;25.62;70.31
76785;SHT30;66893;44.316;0.092;2023-06-22T00:41:53;25.62;70.32
76785;SHT30;66893;44.316;0.092;2023-06-22T00:44:18;25.59;70.28
76785;SHT30;66893;44.316;0.092;2023-06-22T00:46:44;25.61;70.30
76785;SHT30;66893;44.316;0.092;2023-06-22T00:49:09;25.59;70.27
76785;SHT30;66893;44.316;0.092;2023-06-22T00:51:35;25.59;70.26
76785;SHT30;66893;44.316;0.092;2023-06-22T00:54:04;25.56;70.24
76785;SHT30;66893;44.316;0.092;2023-06-22T00:56:30;25.56;70.19
76785;SHT30;66893;44.316;0.092;2023-06-22T00:58:58;25.58;70.21
76785;SHT30;66893;44.316;0.092;2023-06-22T01:01:24;25.55;70.18
76785;SHT30;66893;44.316;0.092;2023-06-22T01:03:50;25.55;70.16
76785;SHT30;66893;44.316;0.092;2023-06-22T01:06:31;25.50;70.15
76785;SHT30;66893;44.316;0.092;2023-06-22T01:09:22;25.53;70.15
76785;SHT30;66893;44.316;0.092;2023-06-22T01:11:55;25.52;70.10
76785;SHT30;66893;44.316;0.092;2023-06-22T01:14:30;25.50;70.09
76785;SHT30;66893;44.316;0.092;2023-06-22T01:16:57;25.55;70.05
76785;SHT30;66893;44.316;0.092;2023-06-22T01:19:46;25.50;70.01
76785;SHT30;66893;44.316;0.092;2023-06-22T01:22:16;25.50;69.99
76785;SHT30;66893;44.316;0.092;2023-06-22T01:25:00;25.50;69.99
76785;SHT30;66893;44.316;0.092;2023-06-22T01:30:27;25.45;69.92
76785;SHT30;66893;44.316;0.092;2023-06-22T01:32:55;25.45;69.90
76785;SHT30;66893;44.316;0.092;2023-06-22T01:35:22;25.45;69.79
76785;SHT30;66893;44.316;0.092;2023-06-22T01:37:52;25.45;69.82
76785;SHT30;66893;44.316;0.092;2023-06-22T01:40:18;25.41;69.78
76785;SHT30;66893;44.316;0.092;2023-06-22T01:42:48;25.43;69.74
76785;SHT30;66893;44.316;0.092;2023-06-22T01:45:14;25.42;69.71
76785;SHT30;66893;44.316;0.092;2023-06-22T01:47:41;25.41;69.65
76785;SHT30;66893;44.316;0.092;2023-06-22T01:50:07;25.41;69.64
76785;SHT30;66893;44.316;0.092;2023-06-22T01:52:33;25.41;69.58
76785;SHT30;66893;44.316;0.092;2023-06-22T01:55:00;25.36;69.52
76785;SHT30;66893;44.316;0.092;2023-06-22T01:57:26;25.36;69.50
76785;SHT30;66893;44.316;0.092;2023-06-22T02:00:04;25.39;69.47
76785;SHT30;66893;44.316;0.092;2023-06-22T02:02:52;25.32;69.44
76785;SHT30;66893;44.316;0.092;2023-06-22T02:05:22;25.34;69.40
76785;SHT30;66893;44.316;0.092;2023-06-22T02:08:02;25.32;69.38
76785;SHT30;66893;44.316;0.092;2023-06-22T02:10:31;25.32;69.29
76785;SHT30;66893;44.316;0.092;2023-06-22T02:12:59;25.29;69.27
76785;SHT30;66893;44.316;0.092;2023-06-22T02:15:25;25.31;69.28
76785;SHT30;66893;44.316;0.092;2023-06-22T02:17:51;25.26;69.23
76785;SHT30;66893;44.316;0.092;2023-06-22T02:20:17;25.29;69.21
76785;SHT30;66893;44.316;0.092;2023-06-22T02:22:43;25.25;69.18
76785;SHT30;66893;44.316;0.092;2023-06-22T02:25:08;25.25;69.16
76785;SHT30;66893;44.316;0.092;2023-06-22T02:27:34;25.24;69.14
76785;SHT30;66893;44.316;0.092;2023-06-22T02:30:00;25.22;69.12
76785;SHT30;66893;44.316;0.092;2023-06-22T02:32:26;25.21;69.06
76785;SHT30;66893;44.316;0.092;2023-06-22T02:34:52;25.18;69.06
76785;SHT30;66893;44.316;0.092;2023-06-22T02:37:18;25.18;69.04
76785;SHT30;66893;44.316;0.092;2023-06-22T02:39:43;25.17;69.00
76785;SHT30;66893;44.316;0.092;2023-06-22T02:42:09;25.18;68.95
76785;SHT30;66893;44.316;0.092;2023-06-22T02:44:36;25.15;68.96
76785;SHT30;66893;44.316;0.092;2023-06-22T02:47:01;25.14;68.92
76785;SHT30;66893;44.316;0.092;2023-06-22T02:49:27;25.12;68.93
76785;SHT30;66893;44.316;0.092;2023-06-22T02:51:52;25.11;68.95
76785;SHT30;66893;44.316;0.092;2023-06-22T02:54:18;25.11;68.89
76785;SHT30;66893;44.316;0.092;2023-06-22T02:56:44;25.10;68.88
76785;SHT30;66893;44.316;0.092;2023-06-22T02:59:10;25.07;68.88
76785;SHT30;66893;44.316;0.092;2023-06-22T03:01:36;25.08;68.87
76785;SHT30;66893;44.316;0.092;2023-06-22T03:04:08;25.06;68.87
76785;SHT30;66893;44.316;0.092;2023-06-22T03:06:35;25.06;68.83
76785;SHT30;66893;44.316;0.092;2023-06-22T03:09:03;25.03;68.83
76785;SHT30;66893;44.316;0.092;2023-06-22T03:11:29;25.06;68.79
76785;SHT30;66893;44.316;0.092;2023-06-22T03:13:56;25.04;68.80
76785;SHT30;66893;44.316;0.092;2023-06-22T03:16:21;25.01;68.78
76785;SHT30;66893;44.316;0.092;2023-06-22T03:18:47;25.03;68.81
76785;SHT30;66893;44.316;0.092;2023-06-22T03:21:12;25.03;68.78
76785;SHT30;66893;44.316;0.092;2023-06-22T03:23:37;25.00;68.79
76785;SHT30;66893;44.316;0.092;2023-06-22T03:26:03;24.97;68.72
76785;SHT30;66893;44.316;0.092;2023-06-22T03:28:29;24.97;68.74
76785;SHT30;66893;44.316;0.092;2023-06-22T03:30:57;24.94;68.70
76785;SHT30;66893;44.316;0.092;2023-06-22T03:33:23;24.97;68.72
76785;SHT30;66893;44.316;0.092;2023-06-22T03:35:48;24.94;68.68
76785;SHT30;66893;44.316;0.092;2023-06-22T03:38:15;24.92;68.68
76785;SHT30;66893;44.316;0.092;2023-06-22T03:40:41;24.91;68.65
76785;SHT30;66893;44.316;0.092;2023-06-22T03:43:06;24.90;68.64
76785;SHT30;66893;44.316;0.092;2023-06-22T03:45:32;24.92;68.63
76785;SHT30;66893;44.316;0.092;2023-06-22T03:47:57;24.91;68.60
76785;SHT30;66893;44.316;0.092;2023-06-22T03:50:22;24.88;68.61
76785;SHT30;66893;44.316;0.092;2023-06-22T03:52:48;24.86;68.53
76785;SHT30;66893;44.316;0.092;2023-06-22T03:55:14;24.86;68.54
76785;SHT30;66893;44.316;0.092;2023-06-22T03:57:39;24.84;68.53
76785;SHT30;66893;44.316;0.092;2023-06-22T04:00:05;24.83;68.49
76785;SHT30;66893;44.316;0.092;2023-06-22T04:02:31;24.83;68.51
76785;SHT30;66893;44.316;0.092;2023-06-22T04:04:56;24.83;68.48
76785;SHT30;66893;44.316;0.092;2023-06-22T04:07:22;24.84;68.46
76785;SHT30;66893;44.316;0.092;2023-06-22T04:09:47;24.81;68.43
76785;SHT30;66893;44.316;0.092;2023-06-22T04:12:13;24.79;68.45
76785;SHT30;66893;44.316;0.092;2023-06-22T04:14:38;24.76;68.40
76785;SHT30;66893;44.316;0.092;2023-06-22T04:17:04;24.76;68.41
76785;SHT30;66893;44.316;0.092;2023-06-22T04:19:30;24.76;68.39
76785;SHT30;66893;44.316;0.092;2023-06-22T04:21:55;24.74;68.32
76785;SHT30;66893;44.316;0.092;2023-06-22T04:24:20;24.72;68.33
76785;SHT30;66893;44.316;0.092;2023-06-22T04:26:46;24.72;68.34
76785;SHT30;66893;44.316;0.092;2023-06-22T04:29:12;24.70;68.33
76785;SHT30;66893;44.316;0.092;2023-06-22T04:31:38;24.69;68.30
76785;SHT30;66893;44.316;0.092;2023-06-22T04:34:05;24.70;68.29
76785;SHT30;66893;44.316;0.092;2023-06-22T04:36:35;24.70;68.29
76785;SHT30;66893;44.316;0.092;2023-06-22T04:39:08;24.69;68.29
76785;SHT30;66893;44.316;0.092;2023-06-22T04:41:38;24.67;68.29
76785;SHT30;66893;44.316;0.092;2023-06-22T04:44:17;24.67;68.23
76785;SHT30;66893;44.316;0.092;2023-06-22T04:46:52;24.66;68.24
76785;SHT30;66893;44.316;0.092;2023-06-22T04:49:29;24.62;68.18
76785;SHT30;66893;44.316;0.092;2023-06-22T04:52:03;24.64;68.21
76785;SHT30;66893;44.316;0.092;2023-06-22T04:54:28;24.66;68.20
76785;SHT30;66893;44.316;0.092;2023-06-22T04:56:54;24.62;68.17
76785;SHT30;66893;44.316;0.092;2023-06-22T04:59:23;24.63;68.19
76785;SHT30;66893;44.316;0.092;2023-06-22T05:01:53;24.60;68.12
76785;SHT30;66893;44.316;0.092;2023-06-22T05:04:22;24.60;68.15
76785;SHT30;66893;44.316;0.092;2023-06-22T05:06:49;24.62;68.14
76785;SHT30;66893;44.316;0.092;2023-06-22T05:09:14;24.59;68.12
76785;SHT30;66893;44.316;0.092;2023-06-22T05:11:40;24.60;68.10
76785;SHT30;66893;44.316;0.092;2023-06-22T05:14:05;24.63;68.06
76785;SHT30;66893;44.316;0.092;2023-06-22T05:16:31;24.62;68.08
76785;SHT30;66893;44.316;0.092;2023-06-22T05:18:56;24.63;68.05
76785;SHT30;66893;44.316;0.092;2023-06-22T05:21:23;24.62;68.03
76785;SHT30;66893;44.316;0.092;2023-06-22T05:23:52;24.63;68.00
76785;SHT30;66893;44.316;0.092;2023-06-22T05:26:21;24.60;68.01
76785;SHT30;66893;44.316;0.092;2023-06-22T05:28:47;24.62;68.02
76785;SHT30;66893;44.316;0.092;2023-06-22T05:31:13;24.62;68.07
76785;SHT30;66893;44.316;0.092;2023-06-22T05:33:40;24.60;68.01
76785;SHT30;66893;44.316;0.092;2023-06-22T05:36:05;24.63;68.01
76785;SHT30;66893;44.316;0.092;2023-06-22T05:38:32;24.63;67.97
76785;SHT30;66893;44.316;0.092;2023-06-22T05:40:57;24.63;67.95
76785;SHT30;66893;44.316;0.092;2023-06-22T05:43:23;24.63;67.92
76785;SHT30;66893;44.316;0.092;2023-06-22T05:45:49;24.67;67.90
76785;SHT30;66893;44.316;0.092;2023-06-22T05:48:14;24.63;67.89
76785;SHT30;66893;44.316;0.092;2023-06-22T05:50:39;24.66;67.89
76785;SHT30;66893;44.316;0.092;2023-06-22T05:53:05;24.66;67.83
76785;SHT30;66893;44.316;0.092;2023-06-22T05:55:32;24.69;67.83
76785;SHT30;66893;44.316;0.092;2023-06-22T05:57:58;24.67;67.87
76785;SHT30;66893;44.316;0.092;2023-06-22T06:00:24;24.70;67.86
76785;SHT30;66893;44.316;0.092;2023-06-22T06:02:52;24.69;67.87
76785;SHT30;66893;44.316;0.092;2023-06-22T06:05:17;24.74;67.83
76785;SHT30;66893;44.316;0.092;2023-06-22T06:07:45;24.73;67.80
76785;SHT30;66893;44.316;0.092;2023-06-22T06:10:10;24.67;67.39
76785;SHT30;66893;44.316;0.092;2023-06-22T06:12:36;24.53;67.45
76785;SHT30;66893;44.316;0.092;2023-06-22T06:15:03;24.46;67.61
76785;SHT30;66893;44.316;0.092;2023-06-22T06:17:28;24.37;67.61
76785;SHT30;66893;44.316;0.092;2023-06-22T06:19:54;24.28;67.65
76785;SHT30;66893;44.316;0.092;2023-06-22T06:22:22;24.22;67.81
76785;SHT30;66893;44.316;0.092;2023-06-22T06:24:49;24.18;67.75
76785;SHT30;66893;44.316;0.092;2023-06-22T06:27:17;24.14;67.88
76785;SHT30;66893;44.316;0.092;2023-06-22T06:29:45;24.07;68.04
76785;SHT30;66893;44.316;0.092;2023-06-22T06:32:13;24.02;67.95
76785;SHT30;66893;44.316;0.092;2023-06-22T06:34:38;23.98;68.09
76785;SHT30;66893;44.316;0.092;2023-06-22T06:37:04;23.93;68.08
76785;SHT30;66893;44.316;0.092;2023-06-22T06:39:29;23.90;68.29
76785;SHT30;66893;44.316;0.092;2023-06-22T06:41:55;23.88;68.35
76785;SHT30;66893;44.316;0.092;2023-06-22T06:44:23;23.85;68.48
76785;SHT30;66893;44.316;0.092;2023-06-22T06:46:49;23.87;68.60
76785;SHT30;66893;44.316;0.092;2023-06-22T06:49:21;23.87;68.71
76785;SHT30;66893;44.316;0.092;2023-06-22T06:51:47;23.90;68.60
76785;SHT30;66893;44.316;0.092;2023-06-22T06:54:12;23.90;68.62
76785;SHT30;66893;44.316;0.092;2023-06-22T06:56:38;23.88;68.66
76785;SHT30;66893;44.316;0.092;2023-06-22T06:59:03;23.88;68.73
76785;SHT30;66893;44.316;0.092;2023-06-22T07:01:29;23.87;68.76
76785;SHT30;66893;44.316;0.092;2023-06-22T07:03:59;23.87;68.83
76785;SHT30;66893;44.316;0.092;2023-06-22T07:06:24;23.87;68.66
76785;SHT30;66893;44.316;0.092;2023-06-22T07:08:55;23.85;68.69
76785;SHT30;66893;44.316;0.092;2023-06-22T07:11:20;23.87;68.74
76785;SHT30;66893;44.316;0.092;2023-06-22T07:13:45;23.90;68.83
76785;SHT30;66893;44.316;0.092;2023-06-22T07:16:11;23.94;68.93
76785;SHT30;66893;44.316;0.092;2023-06-22T07:18:36;23.96;68.91
76785;SHT30;66893;44.316;0.092;2023-06-22T07:21:02;23.98;68.97
76785;SHT30;66893;44.316;0.092;2023-06-22T07:23:31;24.01;68.85
76785;SHT30;66893;44.316;0.092;2023-06-22T07:25:56;24.04;68.69
76785;SHT30;66893;44.316;0.092;2023-06-22T07:28:22;24.07;68.59
76785;SHT30;66893;44.316;0.092;2023-06-22T07:30:47;24.07;68.52
76785;SHT30;66893;44.316;0.092;2023-06-22T07:33:13;24.07;68.54
76785;SHT30;66893;44.316;0.092;2023-06-22T07:35:38;24.08;68.57
76785;SHT30;66893;44.316;0.092;2023-06-22T07:38:04;24.14;68.49
76785;SHT30;66893;44.316;0.092;2023-06-22T07:40:30;24.15;68.50
76785;SHT30;66893;44.316;0.092;2023-06-22T07:42:55;24.17;68.46
76785;SHT30;66893;44.316;0.092;2023-06-22T07:45:21;24.18;68.46
76785;SHT30;66893;44.316;0.092;2023-06-22T07:47:46;24.21;68.49
76785;SHT30;66893;44.316;0.092;2023-06-22T07:50:12;24.24;68.51
76785;SHT30;66893;44.316;0.092;2023-06-22T07:52:37;24.28;68.43
76785;SHT30;66893;44.316;0.092;2023-06-22T07:55:03;24.28;68.46
76785;SHT30;66893;44.316;0.092;2023-06-22T07:57:29;24.32;68.42
76785;SHT30;66893;44.316;0.092;2023-06-22T07:59:59;24.35;68.40
76785;SHT30;66893;44.316;0.092;2023-06-22T08:02:26;24.33;68.27
76785;SHT30;66893;44.316;0.092;2023-06-22T08:04:51;24.35;68.28
76785;SHT30;66893;44.316;0.092;2023-06-22T08:07:17;24.36;68.19
76785;SHT30;66893;44.316;0.092;2023-06-22T08:09:48;24.37;68.16
76785;SHT30;66893;44.316;0.092;2023-06-22T08:12:14;24.40;68.12
76785;SHT30;66893;44.316;0.092;2023-06-22T08:14:42;24.39;68.16
76785;SHT30;66893;44.316;0.092;2023-06-22T08:17:09;24.42;68.17
76785;SHT30;66893;44.316;0.092;2023-06-22T08:19:34;24.45;68.15
76785;SHT30;66893;44.316;0.092;2023-06-22T08:22:00;24.48;68.00
76785;SHT30;66893;44.316;0.092;2023-06-22T08:24:25;24.45;67.95
76785;SHT30;66893;44.316;0.092;2023-06-22T08:26:55;24.37;67.73
76785;SHT30;66893;44.316;0.092;2023-06-22T08:29:21;24.35;67.84
76785;SHT30;66893;44.316;0.092;2023-06-22T08:31:46;24.37;68.14
76785;SHT30;66893;44.316;0.092;2023-06-22T08:34:12;24.45;68.11
76785;SHT30;66893;44.316;0.092;2023-06-22T08:36:37;24.42;67.88
76785;SHT30;66893;44.316;0.092;2023-06-22T08:39:06;24.39;67.91
76785;SHT30;66893;44.316;0.092;2023-06-22T08:41:32;24.39;67.99
76785;SHT30;66893;44.316;0.092;2023-06-22T08:43:57;24.40;68.21
76785;SHT30;66893;44.316;0.092;2023-06-22T08:46:23;24.45;68.11
76785;SHT30;66893;44.316;0.092;2023-06-22T08:48:58;24.48;68.04
76785;SHT30;66893;44.316;0.092;2023-06-22T08:51:24;24.48;67.97
76785;SHT30;66893;44.316;0.092;2023-06-22T08:53:52;24.46;67.94
76785;SHT30;66893;44.316;0.092;2023-06-22T08:56:18;24.48;67.91
76785;SHT30;66893;44.316;0.092;2023-06-22T08:58:44;24.46;67.92
76785;SHT30;66893;44.316;0.092;2023-06-22T09:01:09;24.45;67.95
76785;SHT30;66893;44.316;0.092;2023-06-22T09:03:35;24.53;68.00
76785;SHT30;66893;44.316;0.092;2023-06-22T09:06:02;24.55;68.04
76785;SHT30;66893;44.316;0.092;2023-06-22T09:08:27;24.57;68.06
76785;SHT30;66893;44.316;0.092;2023-06-22T09:10:53;24.67;67.81
76785;SHT30;66893;44.316;0.092;2023-06-22T09:13:18;24.73;67.81
76785;SHT30;66893;44.316;0.092;2023-06-22T09:15:44;24.77;67.59
76785;SHT30;66893;44.316;0.092;2023-06-22T09:18:13;24.86;67.60
76785;SHT30;66893;44.316;0.092;2023-06-22T09:20:39;24.90;67.49
76785;SHT30;66893;44.316;0.092;2023-06-22T09:23:04;24.95;67.22
76785;SHT30;66893;44.316;0.092;2023-06-22T09:25:30;24.98;67.16
76785;SHT30;66893;44.316;0.092;2023-06-22T09:27:56;25.07;67.24
76785;SHT30;66893;44.316;0.092;2023-06-22T09:30:21;25.12;67.05
76785;SHT30;66893;44.316;0.092;2023-06-22T09:32:47;25.17;67.09
76785;SHT30;66893;44.316;0.092;2023-06-22T09:35:12;25.25;67.07
76785;SHT30;66893;44.316;0.092;2023-06-22T09:37:39;25.31;66.97
76785;SHT30;66893;44.316;0.092;2023-06-22T09:40:06;25.36;66.84
76785;SHT30;66893;44.316;0.092;2023-06-22T09:42:35;25.42;66.83
76785;SHT30;66893;44.316;0.092;2023-06-22T09:45:00;25.46;66.67
76785;SHT30;66893;44.316;0.092;2023-06-22T09:47:28;25.49;66.51
76785;SHT30;66893;44.316;0.092;2023-06-22T09:49:54;25.53;66.50
76785;SHT30;66893;44.316;0.092;2023-06-22T09:52:21;25.56;66.38
76785;SHT30;66893;44.316;0.092;2023-06-22T09:54:46;25.61;66.41
76785;SHT30;66893;44.316;0.092;2023-06-22T09:57:12;25.66;66.40
76785;SHT30;66893;44.316;0.092;2023-06-22T09:59:38;25.77;66.55
76785;SHT30;66893;44.316;0.092;2023-06-22T10:02:06;25.89;66.29
76785;SHT30;66893;44.316;0.092;2023-06-22T10:04:32;25.93;65.96
76785;SHT30;66893;44.316;0.092;2023-06-22T10:06:57;25.97;65.81
76785;SHT30;66893;44.316;0.092;2023-06-22T10:09:22;26.02;65.97
76785;SHT30;66893;44.316;0.092;2023-06-22T10:11:48;26.08;65.92
76785;SHT30;66893;44.316;0.092;2023-06-22T10:14:13;26.14;65.69
76785;SHT30;66893;44.316;0.092;2023-06-22T10:16:39;26.13;65.78
76785;SHT30;66893;44.316;0.092;2023-06-22T10:19:06;26.16;65.88
76785;SHT30;66893;44.316;0.092;2023-06-22T10:21:32;26.14;65.65
76785;SHT30;66893;44.316;0.092;2023-06-22T10:23:58;26.17;65.70
76785;SHT30;66893;44.316;0.092;2023-06-22T10:26:24;26.17;65.78
76785;SHT30;66893;44.316;0.092;2023-06-22T10:28:50;26.20;65.72
76785;SHT30;66893;44.316;0.092;2023-06-22T10:31:16;26.25;65.63
76785;SHT30;66893;44.316;0.092;2023-06-22T10:33:42;26.27;65.59
76785;SHT30;66893;44.316;0.092;2023-06-22T10:36:09;26.34;65.42
76785;SHT30;66893;44.316;0.092;2023-06-22T10:38:35;26.38;65.35
76785;SHT30;66893;44.316;0.092;2023-06-22T10:41:00;26.39;65.22
76785;SHT30;66893;44.316;0.092;2023-06-22T10:43:26;26.45;65.15
76785;SHT30;66893;44.316;0.092;2023-06-22T10:45:52;26.49;64.97
76785;SHT30;66893;44.316;0.092;2023-06-22T10:48:17;26.53;64.91
76785;SHT30;66893;44.316;0.092;2023-06-22T10:50:42;26.57;65.14
76785;SHT30;66893;44.316;0.092;2023-06-22T10:53:08;26.63;64.97
76785;SHT30;66893;44.316;0.092;2023-06-22T10:55:33;26.62;64.93
76785;SHT30;66893;44.316;0.092;2023-06-22T10:57:59;26.66;64.83
76785;SHT30;66893;44.316;0.092;2023-06-22T11:00:24;26.71;64.86
76785;SHT30;66893;44.316;0.092;2023-06-22T11:02:50;26.73;64.73
76785;SHT30;66893;44.316;0.092;2023-06-22T11:05:16;26.78;64.69
76785;SHT30;66893;44.316;0.092;2023-06-22T11:07:42;26.84;64.64
76785;SHT30;66893;44.316;0.092;2023-06-22T11:10:09;26.89;64.46
76785;SHT30;66893;44.316;0.092;2023-06-22T11:12:34;26.90;64.50
76785;SHT30;66893;44.316;0.092;2023-06-22T11:15:00;26.96;64.44
76785;SHT30;66893;44.316;0.092;2023-06-22T11:17:26;27.03;64.28
76785;SHT30;66893;44.316;0.092;2023-06-22T11:19:51;27.07;63.84
76785;SHT30;66893;44.316;0.092;2023-06-22T11:22:17;27.08;63.76
76785;SHT30;66893;44.316;0.092;2023-06-22T11:24:42;27.14;63.95
76785;SHT30;66893;44.316;0.092;2023-06-22T11:27:07;27.23;63.68
76785;SHT30;66893;44.316;0.092;2023-06-22T11:29:33;27.24;63.63
76785;SHT30;66893;44.316;0.092;2023-06-22T11:31:58;27.21;63.60
76785;SHT30;66893;44.316;0.092;2023-06-22T11:34:24;27.17;63.58
76785;SHT30;66893;44.316;0.092;2023-06-22T11:36:52;27.14;63.65
76785;SHT30;66893;44.316;0.092;2023-06-22T11:39:18;27.11;63.65
76785;SHT30;66893;44.316;0.092;2023-06-22T11:41:43;27.11;63.62
76785;SHT30;66893;44.316;0.092;2023-06-22T11:44:09;27.08;63.65
76785;SHT30;66893;44.316;0.092;2023-06-22T11:46:34;27.12;63.59
76785;SHT30;66893;44.316;0.092;2023-06-22T11:49:00;27.12;63.50
76785;SHT30;66893;44.316;0.092;2023-06-22T11:51:25;27.17;63.46
76785;SHT30;66893;44.316;0.092;2023-06-22T11:53:51;27.17;63.41
76785;SHT30;66893;44.316;0.092;2023-06-22T11:56:16;27.17;63.44
76785;SHT30;66893;44.316;0.092;2023-06-22T11:58:42;27.21;63.37
76785;SHT30;66893;44.316;0.092;2023-06-22T12:01:07;27.23;63.34
76785;SHT30;66893;44.316;0.092;2023-06-22T12:03:32;27.23;63.34
76785;SHT30;66893;44.316;0.092;2023-06-22T12:05:59;27.26;63.29
76785;SHT30;66893;44.316;0.092;2023-06-22T12:08:24;27.28;63.25
76785;SHT30;66893;44.316;0.092;2023-06-22T12:10:50;27.30;63.21
76785;SHT30;66893;44.316;0.092;2023-06-22T12:13:15;27.33;63.08
76785;SHT30;66893;44.316;0.092;2023-06-22T12:15:41;27.35;63.11
76785;SHT30;66893;44.316;0.092;2023-06-22T12:18:06;27.38;63.06
76785;SHT30;66893;44.316;0.092;2023-06-22T12:20:33;27.41;62.96
76785;SHT30;66893;44.316;0.092;2023-06-22T12:22:59;27.45;62.95
76785;SHT30;66893;44.316;0.092;2023-06-22T12:25:24;27.49;62.88
76785;SHT30;66893;44.316;0.092;2023-06-22T12:27:50;27.49;62.84
76785;SHT30;66893;44.316;0.092;2023-06-22T12:30:16;27.52;62.82
76785;SHT30;66893;44.316;0.092;2023-06-22T12:32:41;27.56;62.76
76785;SHT30;66893;44.316;0.092;2023-06-22T12:35:07;27.59;62.66
76785;SHT30;66893;44.316;0.092;2023-06-22T12:37:37;27.62;62.62
76785;SHT30;66893;44.316;0.092;2023-06-22T12:40:02;27.63;62.61
76785;SHT30;66893;44.316;0.092;2023-06-22T12:42:29;27.66;62.58
76785;SHT30;66893;44.316;0.092;2023-06-22T12:44:54;27.65;62.53
76785;SHT30;66893;44.316;0.092;2023-06-22T12:47:23;27.72;62.48
76785;SHT30;66893;44.316;0.092;2023-06-22T12:49:48;27.75;62.37
76785;SHT30;66893;44.316;0.092;2023-06-22T12:52:13;27.78;62.29
76785;SHT30;66893;44.316;0.092;2023-06-22T12:54:39;27.81;62.26
76785;SHT30;66893;44.316;0.092;2023-06-22T12:57:05;27.85;62.12
76785;SHT30;66893;44.316;0.092;2023-06-22T12:59:30;27.86;62.16
76785;SHT30;66893;44.316;0.092;2023-06-22T13:01:56;27.92;62.18
76785;SHT30;66893;44.316;0.092;2023-06-22T13:04:21;28.00;62.02
76785;SHT30;66893;44.316;0.092;2023-06-22T13:06:47;28.06;61.90
76785;SHT30;66893;44.316;0.092;2023-06-22T13:09:14;28.10;61.81
76785;SHT30;66893;44.316;0.092;2023-06-22T13:11:40;28.14;61.79
76785;SHT30;66893;44.316;0.092;2023-06-22T13:14:05;28.17;61.69
76785;SHT30;66893;44.316;0.092;2023-06-22T13:16:31;28.21;61.63
76785;SHT30;66893;44.316;0.092;2023-06-22T13:18:56;28.18;61.52
76785;SHT30;66893;44.316;0.092;2023-06-22T13:21:22;28.20;61.50
76785;SHT30;66893;44.316;0.092;2023-06-22T13:23:47;28.18;61.49
76785;SHT30;66893;44.316;0.092;2023-06-22T13:26:13;28.18;61.42
76785;SHT30;66893;44.316;0.092;2023-06-22T13:28:38;28.22;61.38
76785;SHT30;66893;44.316;0.092;2023-06-22T13:31:03;28.21;61.37
76785;SHT30;66893;44.316;0.092;2023-06-22T13:33:29;28.27;61.33
76785;SHT30;66893;44.316;0.092;2023-06-22T13:35:55;28.33;61.22
76785;SHT30;66893;44.316;0.092;2023-06-22T13:38:20;28.33;61.19
76785;SHT30;66893;44.316;0.092;2023-06-22T13:40:46;28.34;61.15
76785;SHT30;66893;44.316;0.092;2023-06-22T13:43:12;28.30;61.07
76785;SHT30;66893;44.316;0.092;2023-06-22T13:45:38;28.33;61.09
76785;SHT30;66893;44.316;0.092;2023-06-22T13:48:03;28.31;61.07
76785;SHT30;66893;44.316;0.092;2023-06-22T13:50:29;28.31;61.02
76785;SHT30;66893;44.316;0.092;2023-06-22T13:52:55;28.37;60.99
76785;SHT30;66893;44.316;0.092;2023-06-22T13:55:22;28.37;60.98
76785;SHT30;66893;44.316;0.092;2023-06-22T13:57:48;28.37;60.92
76785;SHT30;66893;44.316;0.092;2023-06-22T14:00:14;28.41;60.86
76785;SHT30;66893;44.316;0.092;2023-06-22T14:02:40;28.41;60.82
76785;SHT30;66893;44.316;0.092;2023-06-22T14:05:07;28.41;60.76
76785;SHT30;66893;44.316;0.092;2023-06-22T14:07:32;28.41;60.80
76785;SHT30;66893;44.316;0.092;2023-06-22T14:09:58;28.41;60.75
76785;SHT30;66893;44.316;0.092;2023-06-22T14:12:24;28.41;60.75
76785;SHT30;66893;44.316;0.092;2023-06-22T14:14:49;28.41;60.70
76785;SHT30;66893;44.316;0.092;2023-06-22T14:17:15;28.44;60.67
76785;SHT30;66893;44.316;0.092;2023-06-22T14:19:40;28.43;60.70
76785;SHT30;66893;44.316;0.092;2023-06-22T14:22:06;28.43;60.67
76785;SHT30;66893;44.316;0.092;2023-06-22T14:24:31;28.43;60.67
76785;SHT30;66893;44.316;0.092;2023-06-22T14:26:57;28.47;60.60
76785;SHT30;66893;44.316;0.092;2023-06-22T14:29:22;28.49;60.54
76785;SHT30;66893;44.316;0.092;2023-06-22T14:31:48;28.52;60.50
76785;SHT30;66893;44.316;0.092;2023-06-22T14:34:15;28.56;60.45
76785;SHT30;66893;44.316;0.092;2023-06-22T14:36:41;28.59;60.44
76785;SHT30;66893;44.316;0.092;2023-06-22T14:39:06;28.61;60.38
76785;SHT30;66893;44.316;0.092;2023-06-22T14:41:32;28.62;60.32
76785;SHT30;66893;44.316;0.092;2023-06-22T14:43:58;28.66;60.29
76785;SHT30;66893;44.316;0.092;2023-06-22T14:46:23;28.69;60.18
76785;SHT30;66893;44.316;0.092;2023-06-22T14:48:49;28.71;60.18
76785;SHT30;66893;44.316;0.092;2023-06-22T14:51:14;28.75;60.13
76785;SHT30;66893;44.316;0.092;2023-06-22T14:53:40;28.76;60.09
76785;SHT30;66893;44.316;0.092;2023-06-22T14:56:06;28.75;60.13
76785;SHT30;66893;44.316;0.092;2023-06-22T14:58:32;28.72;60.09
76785;SHT30;66893;44.316;0.092;2023-06-22T15:01:04;28.76;60.04
76785;SHT30;66893;44.316;0.092;2023-06-22T15:03:34;28.79;60.06
76785;SHT30;66893;44.316;0.092;2023-06-22T15:06:01;28.79;60.01
76785;SHT30;66893;44.316;0.092;2023-06-22T15:08:27;28.76;59.98
76785;SHT30;66893;44.316;0.092;2023-06-22T15:10:53;28.79;59.95
76785;SHT30;66893;44.316;0.092;2023-06-22T15:13:19;28.79;59.95
76785;SHT30;66893;44.316;0.092;2023-06-22T15:15:48;28.80;59.92
76785;SHT30;66893;44.316;0.092;2023-06-22T15:18:14;28.82;59.84
76785;SHT30;66893;44.316;0.092;2023-06-22T15:20:41;28.83;59.89
76785;SHT30;66893;44.316;0.092;2023-06-22T15:23:10;28.80;59.86
76785;SHT30;66893;44.316;0.092;2023-06-22T15:25:35;28.82;59.87
76785;SHT30;66893;44.316;0.092;2023-06-22T15:28:01;28.82;59.83